createdAt,value
2023-05-07T00:00:41.247Z,101643.81
2023-05-07T00:03:44.574Z,101645.63
2023-05-07T00:06:47.693Z,101650.16
2023-05-07T00:09:50.786Z,101645.63
2023-05-07T00:12:54.021Z,101646.75
2023-05-07T00:15:58.479Z,101647.69
2023-05-07T00:19:01.506Z,101652.88
2023-05-07T00:22:04.588Z,101646.28
2023-05-07T00:25:08.712Z,101653.94
2023-05-07T00:28:11.794Z,101643.53
2023-05-07T00:31:16.260Z,101649.53
2023-05-07T00:34:19.478Z,101647.22
2023-05-07T00:37:22.513Z,101641.09
2023-05-07T00:40:25.702Z,101646.88
2023-05-07T00:43:29.715Z,101651.50
2023-05-07T00:46:35.732Z,101651.50
2023-05-07T00:49:42.266Z,101653.13
2023-05-07T00:52:45.691Z,101651.44
2023-05-07T00:55:48.744Z,101648.78
2023-05-07T00:58:52.070Z,101647.72
2023-05-07T01:01:56.711Z,101647.84
2023-05-07T01:05:00.002Z,101646.94
2023-05-07T01:08:04.474Z,101651.16
2023-05-07T01:11:09.208Z,101652.06
2023-05-07T01:14:12.565Z,101645.97
2023-05-07T01:17:17.479Z,101652.97
2023-05-07T01:20:22.399Z,101650.31
2023-05-07T01:23:30.258Z,101649.31
2023-05-07T01:26:33.464Z,101651.84
2023-05-07T01:29:37.064Z,101654.59
2023-05-07T01:32:45.762Z,101652.69
2023-05-07T01:35:53.911Z,101656.97
2023-05-07T01:38:59.882Z,101656.97
2023-05-07T01:42:03.308Z,101661.34
2023-05-07T01:45:08.259Z,101662.22
2023-05-07T01:48:13.594Z,101658.03
2023-05-07T01:51:17.661Z,101661.47
2023-05-07T01:54:28.609Z,101668.34
2023-05-07T01:57:32.419Z,101664.91
2023-05-07T02:00:37.013Z,101669.34
2023-05-07T02:03:40.772Z,101672.56
2023-05-07T02:06:51.625Z,101667.41
2023-05-07T02:09:56.804Z,101678.69
2023-05-07T02:13:00.704Z,101680.63
2023-05-07T02:16:04.139Z,101681.31
2023-05-07T02:19:07.210Z,101679.63
2023-05-07T02:22:12.502Z,101682.09
2023-05-07T02:25:17.164Z,101690.88
2023-05-07T02:28:20.349Z,101684.63
2023-05-07T02:31:30.399Z,101685.66
2023-05-07T02:34:33.637Z,101684.63
2023-05-07T02:37:36.934Z,101690.56
2023-05-07T02:40:41.699Z,101694.00
2023-05-07T02:43:44.862Z,101681.09
2023-05-07T02:46:48.489Z,101694.00
2023-05-07T02:49:51.702Z,101696.69
2023-05-07T02:52:54.766Z,101700.13
2023-05-07T02:56:01.240Z,101694.94
2023-05-07T02:59:04.512Z,101702.09
2023-05-07T03:02:11.128Z,101710.97
2023-05-07T03:05:15.413Z,101707.28
2023-05-07T03:08:19.731Z,101712.56
2023-05-07T03:11:24.135Z,101714.44
2023-05-07T03:14:27.219Z,101719.59
2023-05-07T03:17:30.945Z,101720.44
2023-05-07T03:20:34.447Z,101717.69
2023-05-07T03:23:37.701Z,101720.34
2023-05-07T03:26:42.060Z,101720.34
2023-05-07T03:29:45.281Z,101724.72
2023-05-07T03:32:48.447Z,101726.59
2023-05-07T03:35:51.729Z,101730.03
2023-05-07T03:38:59.473Z,101736.94
2023-05-07T03:42:12.736Z,101730.88
2023-05-07T03:45:16.529Z,101726.59
2023-05-07T03:48:24.261Z,101728.50
2023-05-07T03:51:29.492Z,101733.47
2023-05-07T03:54:32.708Z,101739.72
2023-05-07T03:57:37.241Z,101749.31
2023-05-07T04:00:41.530Z,101742.44
2023-05-07T04:03:59.958Z,101739.03
2023-05-07T04:07:04.038Z,101741.41
2023-05-07T04:10:11.183Z,101744.94
2023-05-07T04:13:18.213Z,101745.88
2023-05-07T04:16:21.426Z,101751.25
2023-05-07T04:19:26.318Z,101751.09
2023-05-07T04:22:30.709Z,101749.53
2023-05-07T04:25:34.077Z,101752.06
2023-05-07T04:28:45.985Z,101754.53
2023-05-07T04:31:49.542Z,101751.25
2023-05-07T04:34:52.862Z,101757.13
2023-05-07T04:37:56.362Z,101761.16
2023-05-07T04:41:00.567Z,101753.06
2023-05-07T04:44:06.939Z,101766.97
2023-05-07T04:47:11.630Z,101764.31
2023-05-07T04:50:14.815Z,101762.47
2023-05-07T04:53:19.763Z,101765.34
2023-05-07T04:56:23.088Z,101775.53
2023-05-07T04:59:27.450Z,101783.25
2023-05-07T05:02:30.953Z,101784.16
2023-05-07T05:05:34.242Z,101786.88
2023-05-07T05:08:39.421Z,101790.00
2023-05-07T05:11:42.558Z,101797.38
2023-05-07T05:14:47.205Z,101790.22
2023-05-07T05:17:50.966Z,101798.84
2023-05-07T05:20:54.835Z,101804.66
2023-05-07T05:23:58.498Z,101807.25
2023-05-07T05:27:03.090Z,101807.97
2023-05-07T05:30:11.180Z,101803.69
2023-05-07T05:33:15.847Z,101804.03
2023-05-07T05:36:19.224Z,101809.28
2023-05-07T05:39:24.218Z,101805.84
2023-05-07T05:42:27.764Z,101806.28
2023-05-07T05:45:33.379Z,101809.78
2023-05-07T05:48:36.580Z,101806.84
2023-05-07T05:51:41.656Z,101800.25
2023-05-07T05:54:45.405Z,101817.09
2023-05-07T05:57:48.715Z,101819.63
2023-05-07T06:00:54.316Z,101814.34
2023-05-07T06:04:01.061Z,101808.94
2023-05-07T06:07:04.187Z,101817.78
2023-05-07T06:10:09.431Z,101821.84
2023-05-07T06:13:13.127Z,101829.44
2023-05-07T06:16:18.586Z,101821.59
2023-05-07T06:19:24.888Z,101827.47
2023-05-07T06:22:30.359Z,101829.94
2023-05-07T06:25:33.723Z,101829.03
2023-05-07T06:28:37.528Z,101836.75
2023-05-07T06:31:44.985Z,101842.41
2023-05-07T06:34:48.424Z,101845.75
2023-05-07T06:37:52.492Z,101845.59
2023-05-07T06:41:00.053Z,101851.00
2023-05-07T06:44:03.463Z,101847.19
2023-05-07T06:47:16.156Z,101851.69
2023-05-07T06:50:22.174Z,101850.84
2023-05-07T06:53:26.867Z,101867.91
2023-05-07T06:56:32.123Z,101863.50
2023-05-07T06:59:35.849Z,101865.50
2023-05-07T07:02:40.806Z,101863.25
2023-05-07T07:05:44.615Z,101860.56
2023-05-07T07:08:48.124Z,101866.91
2023-05-07T07:11:53.404Z,101865.31
2023-05-07T07:14:56.552Z,101854.47
2023-05-07T07:18:01.854Z,101857.38
2023-05-07T07:21:05.866Z,101861.97
2023-05-07T07:24:09.037Z,101874.34
2023-05-07T07:27:12.206Z,101868.34
2023-05-07T07:30:16.141Z,101875.28
2023-05-07T07:33:24.610Z,101870.28
2023-05-07T07:36:38.910Z,101867.84
2023-05-07T07:39:50.404Z,101864.66
2023-05-07T07:42:53.779Z,101855.97
2023-05-07T07:45:57.094Z,101844.56
2023-05-07T07:49:02.227Z,101853.00
2023-05-07T07:52:06.174Z,101856.00
2023-05-07T07:55:13.101Z,101862.69
2023-05-07T07:58:17.220Z,101854.59
2023-05-07T08:01:20.707Z,101857.94
2023-05-07T08:04:26.250Z,101853.06
2023-05-07T08:07:31.670Z,101858.66
2023-05-07T08:10:39.126Z,101857.56
2023-05-07T08:13:48.551Z,101857.47
2023-05-07T08:16:51.972Z,101861.19
2023-05-07T08:19:57.018Z,101858.19
2023-05-07T08:23:00.418Z,101859.13
2023-05-07T08:26:04.457Z,101859.69
2023-05-07T08:29:07.749Z,101863.50
2023-05-07T08:32:11.193Z,101859.50
2023-05-07T08:35:15.635Z,101863.41
2023-05-07T08:38:18.913Z,101862.47
2023-05-07T08:41:24.937Z,101873.22
2023-05-07T08:44:29.878Z,101864.53
2023-05-07T08:47:42.623Z,101871.41
2023-05-07T08:50:47.319Z,101873.41
2023-05-07T08:53:51.592Z,101863.88
2023-05-07T08:57:01.987Z,101866.78
2023-05-07T09:00:07.988Z,101872.75
2023-05-07T09:03:13.823Z,101869.84
2023-05-07T09:06:21.289Z,101877.38
2023-05-07T09:09:24.576Z,101881.16
2023-05-07T09:12:30.691Z,101875.00
2023-05-07T09:15:34.846Z,101881.97
2023-05-07T09:18:43.428Z,101886.59
2023-05-07T09:21:50.076Z,101890.56
2023-05-07T09:24:54.661Z,101888.19
2023-05-07T09:28:02.720Z,101881.13
2023-05-07T09:31:06.313Z,101894.38
2023-05-07T09:34:09.763Z,101894.44
2023-05-07T09:37:18.684Z,101882.72
2023-05-07T09:40:23.947Z,101884.81
2023-05-07T09:43:28.088Z,101886.09
2023-05-07T09:46:37.296Z,101885.75
2023-05-07T09:49:49.958Z,101895.09
2023-05-07T09:52:59.282Z,101891.53
2023-05-07T09:56:05.310Z,101890.25
2023-05-07T09:59:10.573Z,101888.91
2023-05-07T10:02:15.574Z,101893.31
2023-05-07T10:05:24.669Z,101890.56
2023-05-07T10:08:33.037Z,101881.97
2023-05-07T10:11:40.291Z,101885.94
2023-05-07T10:14:44.065Z,101881.50
2023-05-07T10:17:47.872Z,101887.13
2023-05-07T10:20:54.186Z,101890.75
2023-05-07T10:24:02.390Z,101888.91
2023-05-07T10:27:15.364Z,101888.03
2023-05-07T10:30:38.283Z,101885.53
2023-05-07T10:33:43.649Z,101887.28
2023-05-07T10:36:47.804Z,101887.50
2023-05-07T10:39:53.512Z,101888.22
2023-05-07T10:43:00.453Z,101886.44
2023-05-07T10:46:15.647Z,101887.00
2023-05-07T10:49:24.647Z,101882.56
2023-05-07T10:52:34.844Z,101892.56
2023-05-07T10:55:52.371Z,101892.28
2023-05-07T10:59:42.602Z,101892.88
2023-05-07T11:03:36.764Z,101891.84
2023-05-07T11:06:44.001Z,101883.06
2023-05-07T11:10:06.342Z,101894.59
2023-05-07T11:13:47.215Z,101895.13
2023-05-07T11:17:15.738Z,101887.63
2023-05-07T11:20:56.896Z,101880.91
2023-05-07T11:24:23.550Z,101878.78
2023-05-07T11:27:31.944Z,101885.78
2023-05-07T11:30:35.246Z,101872.41
2023-05-07T11:33:40.475Z,101870.53
2023-05-07T11:36:50.122Z,101867.47
2023-05-07T11:40:07.634Z,101873.22
2023-05-07T11:43:13.117Z,101868.25
2023-05-07T11:46:16.400Z,101869.28
2023-05-07T11:49:20.389Z,101874.03
2023-05-07T11:52:26.422Z,101866.19
2023-05-07T11:55:29.906Z,101882.91
2023-05-07T11:58:33.232Z,101877.88
2023-05-07T12:01:38.018Z,101875.22
2023-05-07T12:04:41.616Z,101870.88
2023-05-07T12:07:46.133Z,101868.50
2023-05-07T12:10:52.554Z,101859.50
2023-05-07T12:13:59.834Z,101858.84
2023-05-07T12:17:04.181Z,101866.06
2023-05-07T12:20:09.494Z,101861.19
2023-05-07T12:23:15.123Z,101871.50
2023-05-07T12:26:18.367Z,101873.56
2023-05-07T12:29:23.939Z,101881.09
2023-05-07T12:32:27.216Z,101868.38
2023-05-07T12:35:32.523Z,101864.28
2023-05-07T12:38:40.975Z,101862.88
2023-05-07T12:41:57.602Z,101864.91
2023-05-07T12:45:00.673Z,101871.44
2023-05-07T12:48:04.465Z,101866.38
2023-05-07T12:51:08.997Z,101874.19
2023-05-07T12:54:13.656Z,101867.53
2023-05-07T12:57:16.708Z,101878.06
2023-05-07T13:00:20.406Z,101865.69
2023-05-07T13:03:26.019Z,101877.91
2023-05-07T13:06:30.549Z,101875.75
2023-05-07T13:09:35.196Z,101869.28
2023-05-07T13:12:38.307Z,101866.88
2023-05-07T13:15:41.359Z,101870.63
2023-05-07T13:18:46.879Z,101867.38
2023-05-07T13:21:50.682Z,101868.53
2023-05-07T13:24:57.000Z,101860.50
2023-05-07T13:28:10.043Z,101866.34
2023-05-07T13:31:13.636Z,101866.50
2023-05-07T13:34:16.769Z,101870.31
2023-05-07T13:37:19.829Z,101871.47
2023-05-07T13:40:24.649Z,101869.34
2023-05-07T13:43:27.714Z,101865.94
2023-05-07T13:46:31.572Z,101868.28
2023-05-07T13:49:34.654Z,101865.25
2023-05-07T13:52:37.708Z,101869.81
2023-05-07T13:55:44.632Z,101877.00
2023-05-07T13:58:58.822Z,101878.38
2023-05-07T14:02:02.979Z,101870.97
2023-05-07T14:05:07.108Z,101871.50
2023-05-07T14:08:10.346Z,101865.25
2023-05-07T14:11:14.713Z,101854.13
2023-05-07T14:14:18.149Z,101855.19
2023-05-07T14:17:24.141Z,101863.81
2023-05-07T14:20:27.846Z,101868.81
2023-05-07T14:23:31.098Z,101866.72
2023-05-07T14:26:35.711Z,101858.75
2023-05-07T14:29:38.764Z,101854.81
2023-05-07T14:32:41.854Z,101861.38
2023-05-07T14:35:48.923Z,101856.66
2023-05-07T14:38:54.015Z,101864.38
2023-05-07T14:41:59.452Z,101857.72
2023-05-07T14:45:06.476Z,101853.31
2023-05-07T14:48:10.374Z,101848.06
2023-05-07T14:51:15.273Z,101861.66
2023-05-07T14:54:18.485Z,101853.31
2023-05-07T14:57:23.007Z,101858.47
2023-05-07T15:00:26.269Z,101867.09
2023-05-07T15:03:29.866Z,101861.28
2023-05-07T15:06:33.367Z,101871.59
2023-05-07T15:09:36.415Z,101875.56
2023-05-07T15:12:40.896Z,101874.25
2023-05-07T15:15:45.585Z,101877.34
2023-05-07T15:18:51.473Z,101875.25
2023-05-07T15:21:54.610Z,101870.13
2023-05-07T15:24:58.263Z,101872.47
2023-05-07T15:28:02.927Z,101880.13
2023-05-07T15:31:06.289Z,101883.00
2023-05-07T15:34:09.606Z,101885.59
2023-05-07T15:37:12.762Z,101889.53
2023-05-07T15:40:15.920Z,101897.06
2023-05-07T15:43:20.421Z,101884.53
2023-05-07T15:46:25.645Z,101883.59
2023-05-07T15:49:28.939Z,101873.63
2023-05-07T15:52:32.533Z,101879.13
2023-05-07T15:55:35.645Z,101888.38
2023-05-07T15:58:40.008Z,101875.38
2023-05-07T16:01:43.510Z,101878.84
2023-05-07T16:04:47.505Z,101879.72
2023-05-07T16:07:51.427Z,101883.16
2023-05-07T16:10:54.540Z,101887.31
2023-05-07T16:14:00.758Z,101889.56
2023-05-07T16:17:03.859Z,101877.16
2023-05-07T16:20:09.649Z,101887.63
2023-05-07T16:23:26.752Z,101874.13
2023-05-07T16:26:30.830Z,101886.75
2023-05-07T16:29:35.313Z,101888.56
2023-05-07T16:32:38.439Z,101893.72
2023-05-07T16:35:41.615Z,101888.84
2023-05-07T16:38:44.906Z,101893.59
2023-05-07T16:41:50.614Z,101905.25
2023-05-07T16:44:55.110Z,101900.56
2023-05-07T16:47:58.699Z,101907.06
2023-05-07T16:51:02.187Z,101906.84
2023-05-07T16:54:05.361Z,101905.06
2023-05-07T16:57:08.470Z,101900.34
2023-05-07T17:00:19.705Z,101906.13
2023-05-07T17:03:24.034Z,101897.53
2023-05-07T17:06:27.979Z,101907.16
2023-05-07T17:09:31.073Z,101914.91
2023-05-07T17:12:35.826Z,101910.41
2023-05-07T17:15:41.243Z,101911.06
2023-05-07T17:18:54.234Z,101927.06
2023-05-07T17:21:57.571Z,101929.94
2023-05-07T17:25:04.287Z,101937.97
2023-05-07T17:28:07.381Z,101932.06
2023-05-07T17:31:11.856Z,101934.63
2023-05-07T17:34:15.551Z,101940.59
2023-05-07T17:37:18.861Z,101940.59
2023-05-07T17:40:24.759Z,101954.41
2023-05-07T17:43:27.920Z,101951.44
2023-05-07T17:46:32.744Z,101953.25
2023-05-07T17:49:54.426Z,101963.16
2023-05-07T17:53:00.761Z,101970.63
2023-05-07T17:56:03.811Z,101964.94
2023-05-07T17:59:06.944Z,101962.22
2023-05-07T18:05:45.060Z,101962.06
2023-05-07T18:08:49.027Z,101968.78
2023-05-07T18:11:55.042Z,101961.44
2023-05-07T18:15:01.182Z,101976.47
2023-05-07T18:18:06.981Z,101962.44
2023-05-07T18:21:18.563Z,101977.53
2023-05-07T18:24:25.339Z,101975.06
2023-05-07T18:27:29.198Z,101972.75
2023-05-07T18:30:34.928Z,101973.50
2023-05-07T18:34:04.164Z,101977.63
2023-05-07T18:37:09.874Z,101980.88
2023-05-07T18:40:22.469Z,101987.53
2023-05-07T18:43:35.050Z,101990.69
2023-05-07T18:46:51.313Z,101999.09
2023-05-07T18:49:58.730Z,102009.72
2023-05-07T18:53:02.799Z,102005.88
2023-05-07T18:56:10.389Z,102011.00
2023-05-07T18:59:14.054Z,102016.59
2023-05-07T19:02:24.745Z,102019.00
2023-05-07T19:05:29.393Z,102024.22
2023-05-07T19:08:32.952Z,102021.19
2023-05-07T19:11:36.000Z,102021.38
2023-05-07T19:14:41.173Z,102023.06
2023-05-07T19:17:44.402Z,102032.41
2023-05-07T19:20:52.096Z,102027.50
2023-05-07T19:23:58.152Z,102041.72
2023-05-07T19:27:01.709Z,102034.88
2023-05-07T19:30:06.343Z,102042.81
2023-05-07T19:33:09.663Z,102039.75
2023-05-07T19:36:14.296Z,102049.81
2023-05-07T19:39:20.472Z,102045.88
2023-05-07T19:42:23.717Z,102051.44
2023-05-07T19:45:27.126Z,102052.63
2023-05-07T19:48:36.849Z,102051.25
2023-05-07T19:51:41.777Z,102049.09
2023-05-07T19:55:11.481Z,102056.47
2023-05-07T19:58:17.089Z,102057.81
2023-05-07T20:01:22.269Z,102060.81
2023-05-07T20:04:29.881Z,102060.81
2023-05-07T20:07:34.349Z,102070.22
2023-05-07T20:10:37.474Z,102075.91
2023-05-07T20:13:40.530Z,102081.13
2023-05-07T20:16:43.696Z,102080.28
2023-05-07T20:19:52.801Z,102077.47
2023-05-07T20:22:57.337Z,102087.31
2023-05-07T20:26:00.389Z,102089.22
2023-05-07T20:29:04.383Z,102098.06
2023-05-07T20:32:07.690Z,102111.47
2023-05-07T20:35:11.420Z,102112.47
2023-05-07T20:38:15.840Z,102112.03
2023-05-07T20:41:21.051Z,102113.22
2023-05-07T20:44:24.543Z,102114.28
2023-05-07T20:47:27.858Z,102114.59
2023-05-07T20:50:34.074Z,102113.91
2023-05-07T20:53:40.583Z,102126.38
2023-05-07T20:56:43.665Z,102122.22
2023-05-07T20:59:46.984Z,102116.22
2023-05-07T21:02:50.357Z,102121.53
2023-05-07T21:05:54.492Z,102126.84
2023-05-07T21:08:58.780Z,102128.16
2023-05-07T21:12:01.775Z,102124.75
2023-05-07T21:15:08.967Z,102123.22
2023-05-07T21:18:12.548Z,102129.50
2023-05-07T21:21:16.476Z,102130.63
2023-05-07T21:24:20.815Z,102129.28
2023-05-07T21:27:24.327Z,102137.38
2023-05-07T21:30:27.415Z,102129.56
2023-05-07T21:33:30.495Z,102129.69
2023-05-07T21:36:33.527Z,102131.78
2023-05-07T21:39:37.963Z,102133.16
2023-05-07T21:42:41.133Z,102142.72
2023-05-07T21:45:44.148Z,102137.66
2023-05-07T21:48:47.673Z,102128.25
2023-05-07T21:51:50.797Z,102150.88
2023-05-07T21:54:55.253Z,102153.69
2023-05-07T21:58:05.400Z,102153.03
2023-05-07T22:01:12.395Z,102156.81
2023-05-07T22:04:15.568Z,102164.75
2023-05-07T22:07:18.639Z,102160.53
2023-05-07T22:10:24.019Z,102157.22
2023-05-07T22:13:28.918Z,102164.47
2023-05-07T22:16:32.160Z,102153.56
2023-05-07T22:19:35.464Z,102155.59
2023-05-07T22:22:49.340Z,102156.63
2023-05-07T22:25:55.860Z,102155.88
2023-05-07T22:28:58.975Z,102160.44
2023-05-07T22:32:02.292Z,102166.44
2023-05-07T22:35:09.158Z,102170.91
2023-05-07T22:38:12.271Z,102165.09
2023-05-07T22:41:16.595Z,102168.91
2023-05-07T22:44:19.907Z,102172.59
2023-05-07T22:47:23.448Z,102170.31
2023-05-07T22:50:28.521Z,102169.59
2023-05-07T22:53:31.546Z,102175.94
2023-05-07T22:56:36.107Z,102172.91
2023-05-07T22:59:39.248Z,102174.78
2023-05-07T23:02:42.856Z,102183.47
2023-05-07T23:05:47.812Z,102172.25
2023-05-07T23:08:51.356Z,102178.44
2023-05-07T23:11:55.828Z,102174.28
2023-05-07T23:14:58.875Z,102175.25
2023-05-07T23:18:04.141Z,102169.31
2023-05-07T23:21:07.834Z,102172.72
2023-05-07T23:24:11.498Z,102163.34
2023-05-07T23:27:15.925Z,102172.97
2023-05-07T23:30:22.213Z,102168.78
2023-05-07T23:33:27.597Z,102172.44
2023-05-07T23:36:31.512Z,102170.94
2023-05-07T23:39:34.582Z,102168.56
2023-05-07T23:42:38.928Z,102176.47
2023-05-07T23:45:41.993Z,102171.59
2023-05-07T23:48:45.050Z,102171.00
2023-05-07T23:51:48.208Z,102166.72
2023-05-07T23:54:51.207Z,102163.31
2023-05-07T23:57:55.534Z,102169.63
